Flight Track Log - Related Links

Times and Time Zones

All times are in EST time to prevent confusion due to time zone crossing. See the ACA7017 flight status page for this flight to view local times or setup timezone preferences in your user account.

Time Position Orientation Groundspeed Altitude Reporting Facility
EST Latitude Longitude Course Direction KTS MPH feet Rate Location/Type
Thu 00:01:50 41.8167 -87.7667 346° North 157 181 2,500  Level Chicago TRACON
Thu 00:06:56 42.1690 -87.7830 346° North 393 452 14,000 2,308 Climbing FlightAware
Thu 00:07:00 42.2617 -88.2167 346° North  Level Estimated
Thu 00:07:41 42.2460 -87.8220 339° North 344 396 16,000  Level FlightAware
Thu 00:08:21 42.3150 -87.8580 339° North 398 458 16,800 873 Climbing FlightAware
Thu 00:08:36 42.3400 -87.8720 338° Northwest 398 458 16,800 1,320 Level FlightAware
Thu 00:09:11 42.4010 -87.9150 333° Northwest 605 696 17,900 2,057 Climbing FlightAware
Thu 00:09:46 42.4690 -87.9410 344° North 420 483 19,200 1,976 Climbing FlightAware
Thu 00:10:36 42.5620 -87.9900 339° North 456 525 20,700 1,860 Climbing FlightAware
Thu 00:11:26 42.6580 -88.0400 339° North 471 542 22,300 1,691 Climbing FlightAware
Thu 00:12:26 42.7750 -88.1030 338° Northwest 447 514 23,800 1,473 Climbing FlightAware
Thu 00:13:16 42.8740 -88.1550 339° North 463 533 25,000 1,440 Climbing FlightAware
Thu 00:14:06 42.9750 -88.2100 338° Northwest 466 536 26,200 1,725 Climbing FlightAware
Thu 00:14:36 43.0370 -88.2430 339° North 496 571 27,300 2,067 Climbing FlightAware
Thu 00:15:36 43.1480 -88.3180 334° Northwest 433 498 29,300 1,878 Climbing FlightAware
Thu 00:16:31 43.2390 -88.4060 325° Northwest 440 506 30,900 1,440 Climbing FlightAware
Thu 00:16:51 43.2730 -88.4380 326° Northwest 421 484 31,100 1,080 Climbing FlightAware
Thu 00:17:21 43.3220 -88.4860 325° Northwest 452 520 31,800 2,118 Climbing FlightAware
Thu 00:18:16 43.4150 -88.5790 324° Northwest 422 486 34,100 1,860 Climbing FlightAware
Thu 00:19:01 43.4880 -88.6520 324° Northwest 417 480 34,900 800 Climbing FlightAware
Thu 00:19:31 43.5370 -88.7010 324° Northwest 449 517 35,100 462 Climbing FlightAware
Thu 00:20:06 43.5970 -88.7600 325° Northwest 445 512 35,400 800 Climbing FlightAware
Thu 00:20:46 43.6610 -88.8250 324° Northwest 462 532 36,100 1,029 Climbing FlightAware
Thu 00:21:16 43.7140 -88.8770 325° Northwest 435 501 36,600 840 Climbing FlightAware
Thu 00:22:26 43.8310 -88.9960 324° Northwest 471 542 37,500 764 Climbing FlightAware
Thu 00:23:06 43.8940 -89.0580 325° Northwest 420 483 38,000 294 Climbing FlightAware
Thu 00:24:08 43.9780 -89.1400 325° Northwest 420 483 38,000  Level FlightAware
Thu 00:24:56 44.0430 -89.2030 325° Northwest 420 483 38,000  Level FlightAware
Thu 00:25:32 44.0920 -89.2500 325° Northwest 420 483 38,000  Level FlightAware
Thu 00:26:21 44.1580 -89.3150 325° Northwest 420 483 38,000  Level FlightAware
Thu 00:27:09 44.2230 -89.3780 325° Northwest 420 483 38,000  Level FlightAware
Thu 00:27:57 44.2880 -89.4420 325° Northwest 420 483 38,000  Level FlightAware
Thu 00:28:46 44.3540 -89.5070 325° Northwest 420 483 38,000  Level FlightAware
Thu 00:29:46 44.4360 -89.5860 325° Northwest 420 483 38,000  Level FlightAware
Thu 00:30:10 44.4680 -89.6180 324° Northwest 420 483 38,000  Level FlightAware
Thu 00:30:58 44.5330 -89.6820 325° Northwest 420 483 38,000  Level FlightAware
Thu 00:31:58 44.6140 -89.7620 325° Northwest 420 483 38,000  Level FlightAware
Thu 00:32:44 44.6760 -89.8230 325° Northwest 420 483 38,000  Level FlightAware
Thu 00:32:56 44.6930 -89.8390 326° Northwest 420 483 38,000  Level FlightAware
Thu 00:33:34 44.9703 -90.1731 326° Northwest 447 514 38,000  Level Chicago Center
Thu 00:34:49 45.0972 -90.3097 323° Northwest 451 519 38,000  Level Minneapolis Center
Thu 00:35:49 45.1969 -90.4169 323° Northwest 451 519 38,000  Level Minneapolis Center
Thu 00:36:50 45.2986 -90.5269 323° Northwest 456 525 38,000  Level Minneapolis Center
Thu 00:37:50 45.3994 -90.6347 323° Northwest 454 522 38,000  Level Minneapolis Center
Thu 00:38:50 45.4992 -90.7444 322° Northwest 452 520 38,000  Level Minneapolis Center
Thu 00:39:51 45.6006 -90.8542 323° Northwest 455 524 38,000  Level Minneapolis Center
Thu 00:40:51 45.7033 -90.9653 323° Northwest 457 526 38,000  Level Minneapolis Center
Thu 00:41:51 45.8039 -91.0778 322° Northwest 458 527 38,000  Level Minneapolis Center
Thu 00:42:52 45.9056 -91.1889 323° Northwest 457 526 38,000  Level Minneapolis Center
Thu 00:43:52 46.0042 -91.2981 322° Northwest 452 520 38,000  Level Minneapolis Center
Thu 00:44:52 46.1033 -91.4100 322° Northwest 450 518 38,000  Level Minneapolis Center
Thu 00:45:52 46.2036 -91.5206 323° Northwest 452 520 38,000  Level Minneapolis Center
Thu 00:46:53 46.3175 -91.6497 322° Northwest 452 520 38,000 -50 Level Minneapolis Center
Thu 00:47:53 46.4139 -91.7589 322° Northwest 444 511 37,900 -50 Descending Minneapolis Center
Thu 00:48:53 46.5114 -91.8678 322° Northwest 443 510 37,900  Level Minneapolis Center
Thu 00:49:54 46.6089 -91.9778 322° Northwest 444 511 37,900 50 Level Minneapolis Center
Thu 00:50:54 46.7044 -92.0919 321° Northwest 446 513 38,000 50 Climbing Minneapolis Center
Thu 00:51:54 46.8008 -92.2044 321° Northwest 445 512 38,000  Level Minneapolis Center
Thu 00:52:54 46.8961 -92.3183 321° Northwest 445 512 38,000 -50 Level Minneapolis Center
Thu 00:53:55 46.9883 -92.4344 319° Northwest 441 507 37,900  Descending Minneapolis Center
Thu 00:54:55 47.0817 -92.5500 320° Northwest 440 506 38,000  Climbing Minneapolis Center
Thu 00:55:55 47.1747 -92.6636 320° Northwest 439 505 37,900 -50 Descending Minneapolis Center
Thu 00:56:55 47.2669 -92.7800 319° Northwest 439 505 37,900  Level Minneapolis Center
Thu 00:57:56 47.3600 -92.8956 320° Northwest 440 506 37,900 50 Level Minneapolis Center
Thu 00:58:56 47.4508 -93.0133 319° Northwest 443 510 38,000 49 Climbing Minneapolis Center
Thu 00:59:58 47.5406 -93.1269 319° Northwest 440 506 38,000  Level Minneapolis Center
Thu 01:00:58 47.6319 -93.2419 320° Northwest 438 504 38,000  Level Minneapolis Center
Thu 01:01:58 47.7239 -93.3597 319° Northwest 439 505 38,000 -50 Level Minneapolis Center
Thu 01:02:58 47.8161 -93.4783 319° Northwest 441 507 37,900 -50 Descending Minneapolis Center
Thu 01:03:58 47.9097 -93.5994 319° Northwest 445 512 37,900  Level Minneapolis Center
Thu 01:04:59 48.0017 -93.7197 319° Northwest 443 510 37,900  Level Minneapolis Center
Thu 01:05:59 48.0939 -93.8414 319° Northwest 444 511 37,900 50 Level Minneapolis Center
Thu 01:06:59 48.2067 -93.9894 319° Northwest 448 516 38,000 50 Climbing Minneapolis Center
Thu 01:07:59 48.3008 -94.1147 319° Northwest 451 519 38,000 -50 Level Minneapolis Center
Thu 01:09:00 48.3956 -94.2389 319° Northwest 453 521 37,900  Descending Minneapolis Center
Thu 01:10:00 48.4894 -94.3650 318° Northwest 453 521 38,000 50 Climbing Minneapolis Center
Thu 01:11:00 48.5822 -94.4919 318° Northwest 453 521 38,000  Level Minneapolis Center
Thu 01:12:00 48.6764 -94.6167 319° Northwest 452 520 38,000 -50 Level Minneapolis Center
Thu 01:13:00 48.7700 -94.7425 318° Northwest 451 519 37,900 -50 Descending Minneapolis Center
Thu 01:14:01 48.8628 -94.8703 318° Northwest 451 519 37,900  Level Minneapolis Center
Thu 01:15:01 48.9542 -94.9947 318° Northwest 446 513 37,900  Level Minneapolis Center
Thu 01:16:01 49.0458 -95.1222 318° Northwest 448 516 37,900 -356 Level Minneapolis Center
Thu 01:17:16 49.1333 -95.2833 310° West 440 506 37,100 -1,778 Descending Winnipeg Center
Thu 01:18:16 49.1833 -95.4333 297° West 440 506 33,900 -3,650 Descending Winnipeg Center
Thu 01:19:16 49.2333 -95.6167 293° West 440 506 29,800 -4,300 Descending Winnipeg Center
Thu 01:20:16 49.2833 -95.7833 295° West 420 483 25,300 -3,950 Descending Winnipeg Center
Thu 01:21:16 49.3333 -95.9333 297° West 430 495 21,900 -3,350 Descending Winnipeg Center
Thu 01:22:16 49.3833 -96.1000 295° West 410 472 18,600 -3,100 Descending Winnipeg Center
Thu 01:23:16 49.4500 -96.2500 304° West 400 460 15,700 -2,850 Descending Winnipeg Center
Thu 01:24:16 49.4833 -96.4000 289° West 380 437 12,900 -2,350 Descending Winnipeg Center
Thu 01:25:16 49.5333 -96.5333 300° West 360 414 11,000 -1,350 Descending Winnipeg Center
Thu 01:26:16 49.5667 -96.6500 294° West 300 345 10,200 -1,150 Descending Winnipeg Center
Thu 01:27:16 49.6000 -96.7667 294° West 270 311 8,700 -1,500 Descending Winnipeg Center
Thu 01:28:16 49.6333 -96.8667 297° West 260 299 7,200 -1,600 Descending Winnipeg Center
Thu 01:29:16 49.6667 -96.9667 297° West 260 299 5,500 -1,600 Descending Winnipeg Center
Thu 01:30:16 49.6833 -97.0667 284° West 260 299 4,000 -850 Descending Winnipeg Center
Thu 01:31:16 49.7167 -97.1500 302° West 230 265 3,800 -450 Descending Winnipeg Center
Thu 01:32:16 49.7333 -97.2500 284° West 190 219 3,100 -450 Descending Winnipeg Center
Thu 01:33:16 49.7833 -97.2500 360° North 170 196 2,900 -500 Descending Winnipeg Center
Thu 01:34:16 49.8167 -97.2500 360° North 140 161 2,100 -750 Descending Winnipeg Center
Thu 01:35:16 49.8500 -97.2500 360° North 120 138 1,400 -700 Descending Winnipeg Center
Thu 01:36:16 49.8833 -97.2333 18° North 120 138 700 -700 Descending Winnipeg Center

Login

Don't have an account? Register now (free) for customized features, flight alerts, and more!